EDT,Max TemperatureF,Mean TemperatureF,Min TemperatureF,Max Dew PointF,MeanDew PointF,Min DewpointF,Max Humidity, Mean Humidity, Min Humidity, Max Sea Level PressureIn, Mean Sea Level PressureIn, Min Sea Level PressureIn, Max VisibilityMiles, Mean VisibilityMiles, Min VisibilityMiles, Max Wind SpeedMPH, Mean Wind SpeedMPH, Max Gust SpeedMPH,PrecipitationIn, CloudCover, Events, WindDirDegrees
2013-7-1,75,72,69,71,70,68,100,94,84,30.12,30.05,29.97,10,6,2,14,10,24,0.12,8,Rain,207
2013-7-2,78,74,71,72,71,69,100,92,83,30.22,30.17,30.12,10,8,2,15,11,23,0.01,8,Rain,211
2013-7-3,81,76,71,72,71,70,96,89,76,30.23,30.21,30.19,10,8,2,21,15,26,0.00,5,,227
2013-7-4,84,78,73,74,72,70,94,85,69,30.22,30.18,30.14,10,9,3,18,13,25,0.00,3,,228
2013-7-5,87,80,73,74,71,68,91,78,67,30.17,30.13,30.07,10,10,9,21,12,28,0.00,0,,235
2013-7-6,88,80,73,75,72,70,91,75,63,30.09,30.04,29.97,10,10,10,14,10,18,0.00,0,,240
2013-7-7,90,82,73,74,71,69,93,76,55,30.02,29.98,29.93,10,10,6,15,6,23,0.00,0,,229
2013-7-8,84,78,71,72,71,69,94,80,63,30.04,29.97,29.93,10,9,4,14,8,22,0.00,1,,221
2013-7-9,73,71,69,70,68,67,100,92,81,30.09,30.05,30.02,10,5,0,8,3,,0.19,7,Fog-Rain,352
2013-7-10,80,75,70,74,72,69,100,91,74,30.06,29.95,29.83,10,5,0,21,7,30,0.01,7,Fog,187
2013-7-11,77,74,72,73,72,67,97,92,81,29.91,29.85,29.82,10,7,5,20,11,26,0.04,7,Rain,219
2013-7-12,75,70,66,72,67,63,100,89,71,30.17,30.03,29.90,10,6,0,14,6,20,0.00,7,Fog,28
2013-7-13,80,72,66,72,69,66,100,89,77,30.30,30.27,30.16,10,7,0,7,4,,0.22,7,Fog-Rain,115
2013-7-14,82,76,71,74,72,71,100,91,74,30.30,30.27,30.20,10,5,0,10,4,,0.29,6,Fog-Rain,237
2013-7-15,89,80,71,74,72,67,97,79,49,30.19,30.15,30.11,10,9,2,9,2,,0.00,2,,283
2013-7-16,87,78,70,72,68,65,90,70,53,30.16,30.11,30.07,10,10,9,14,7,,0.00,0,,351
2013-7-17,84,76,68,71,68,66,93,75,57,30.18,30.13,30.05,10,10,8,13,3,,0.00,0,,195
2013-7-18,88,82,75,75,72,70,94,76,59,30.02,29.99,29.97,10,9,3,14,9,20,0.00,1,,221
2013-7-19,89,82,75,77,75,73,100,84,65,29.96,29.88,29.78,8,5,2,26,11,36,0.00,1,,216
2013-7-20,87,82,75,75,74,70,94,83,63,29.80,29.75,29.68,10,5,3,24,14,37,0.00,2,,232
2013-7-21,82,74,68,72,68,66,93,82,69,29.99,29.92,29.81,10,10,7,7,4,,0.02,3,Rain,181
2013-7-22,78,74,69,70,68,66,100,88,68,30.01,29.95,29.88,10,8,2,8,3,,0.00,4,,112
2013-7-23,82,76,71,75,73,70,100,89,74,29.87,29.67,29.56,10,6,0,23,8,32,0.00,6,Fog,199
2013-7-24,88,80,73,73,69,62,91,74,49,29.89,29.69,29.58,10,10,6,15,8,23,0.00,4,Rain,241
2013-7-25,72,67,62,66,60,57,100,81,73,30.04,29.98,29.90,10,10,4,16,13,29,0.17,7,Rain,23
2013-7-26,68,66,64,66,65,63,100,97,93,30.01,29.91,29.85,10,4,1,22,11,33,1.49,8,Rain,341
2013-7-27,80,72,64,70,67,64,97,84,60,30.07,30.04,30.02,10,10,10,13,9,20,0.01,2,,216
2013-7-28,80,74,69,74,70,66,100,90,79,30.03,29.98,29.94,10,9,1,10,4,,0.12,7,Rain,32
2013-7-29,79,72,66,73,70,65,100,89,76,30.04,30.02,29.99,10,10,6,10,4,,0.00,3,,195
2013-7-30,80,72,66,69,64,57,100,78,48,30.09,30.05,30.01,10,9,2,12,6,18,0.00,1,,319
2013-7-31,79,70,61,64,60,54,93,70,43,30.12,30.09,30.06,10,10,10,13,3,,0.00,0,,249